sensor_id;sensor_type;location;lat;lon;timestamp;pressure;altitude;pressure_sealevel;temperature;humidity
73651;BME280;61944;52.538;6.108;2024-03-23T00:53:45;100872.22;;;8.12;100.00
73651;BME280;61944;52.538;6.108;2024-03-23T00:56:11;100868.19;;;8.10;100.00
73651;BME280;61944;52.538;6.108;2024-03-23T00:58:36;100856.63;;;8.11;100.00
73651;BME280;61944;52.538;6.108;2024-03-23T01:01:01;100867.63;;;8.20;100.00
73651;BME280;61944;52.538;6.108;2024-03-23T01:03:29;100864.31;;;7.99;100.00
73651;BME280;61944;52.538;6.108;2024-03-23T01:05:54;100857.03;;;7.94;100.00
73651;BME280;61944;52.538;6.108;2024-03-23T01:08:20;100853.69;;;8.04;100.00
73651;BME280;61944;52.538;6.108;2024-03-23T01:11:01;100855.78;;;7.91;100.00
73651;BME280;61944;52.538;6.108;2024-03-23T01:13:28;100847.41;;;7.91;100.00
73651;BME280;61944;52.538;6.108;2024-03-23T01:15:54;100845.53;;;7.96;100.00
73651;BME280;61944;52.538;6.108;2024-03-23T01:18:20;100845.03;;;8.09;100.00
73651;BME280;61944;52.538;6.108;2024-03-23T01:20:46;100837.31;;;8.03;100.00
73651;BME280;61944;52.538;6.108;2024-03-23T01:23:12;100835.38;;;8.03;100.00
73651;BME280;61944;52.538;6.108;2024-03-23T01:25:37;100837.25;;;7.99;100.00
73651;BME280;61944;52.538;6.108;2024-03-23T01:28:03;100831.59;;;7.96;100.00
73651;BME280;61944;52.538;6.108;2024-03-23T01:30:28;100833.63;;;7.99;100.00
73651;BME280;61944;52.538;6.108;2024-03-23T01:32:55;100829.84;;;8.07;100.00
73651;BME280;61944;52.538;6.108;2024-03-23T01:35:21;100822.16;;;7.84;100.00
73651;BME280;61944;52.538;6.108;2024-03-23T01:37:46;100825.41;;;7.86;100.00
73651;BME280;61944;52.538;6.108;2024-03-23T01:40:12;100822.97;;;7.69;100.00
73651;BME280;61944;52.538;6.108;2024-03-23T01:42:39;100817.56;;;7.92;100.00
73651;BME280;61944;52.538;6.108;2024-03-23T01:45:07;100812.44;;;7.94;100.00
73651;BME280;61944;52.538;6.108;2024-03-23T01:47:36;100814.41;;;7.78;100.00
73651;BME280;61944;52.538;6.108;2024-03-23T01:50:01;100809.38;;;7.83;100.00
73651;BME280;61944;52.538;6.108;2024-03-23T01:52:27;100797.00;;;7.65;100.00
73651;BME280;61944;52.538;6.108;2024-03-23T01:54:53;100795.91;;;7.53;100.00
73651;BME280;61944;52.538;6.108;2024-03-23T01:57:19;100790.72;;;7.36;100.00
73651;BME280;61944;52.538;6.108;2024-03-23T01:59:46;100784.06;;;7.57;100.00
73651;BME280;61944;52.538;6.108;2024-03-23T02:02:12;100788.28;;;7.66;100.00
73651;BME280;61944;52.538;6.108;2024-03-23T02:04:37;100783.09;;;7.49;100.00
73651;BME280;61944;52.538;6.108;2024-03-23T02:07:02;100779.19;;;7.69;100.00
73651;BME280;61944;52.538;6.108;2024-03-23T02:09:30;100770.91;;;7.73;100.00
73651;BME280;61944;52.538;6.108;2024-03-23T02:11:57;100771.31;;;7.56;100.00
73651;BME280;61944;52.538;6.108;2024-03-23T02:14:22;100769.66;;;7.54;100.00
73651;BME280;61944;52.538;6.108;2024-03-23T02:16:47;100768.88;;;7.54;100.00
73651;BME280;61944;52.538;6.108;2024-03-23T02:19:13;100758.19;;;7.72;100.00
73651;BME280;61944;52.538;6.108;2024-03-23T02:21:38;100759.63;;;7.66;100.00
73651;BME280;61944;52.538;6.108;2024-03-23T02:24:03;100768.97;;;7.58;100.00
73651;BME280;61944;52.538;6.108;2024-03-23T02:26:29;100763.50;;;7.61;100.00
73651;BME280;61944;52.538;6.108;2024-03-23T02:28:54;100760.50;;;7.70;100.00
73651;BME280;61944;52.538;6.108;2024-03-23T02:31:20;100758.00;;;7.65;100.00
73651;BME280;61944;52.538;6.108;2024-03-23T02:33:45;100756.53;;;7.71;100.00
73651;BME280;61944;52.538;6.108;2024-03-23T02:36:10;100757.28;;;7.52;100.00
73651;BME280;61944;52.538;6.108;2024-03-23T02:38:36;100753.69;;;7.51;100.00
73651;BME280;61944;52.538;6.108;2024-03-23T02:41:04;100753.84;;;7.59;100.00
73651;BME280;61944;52.538;6.108;2024-03-23T02:43:30;100751.25;;;7.66;100.00
73651;BME280;61944;52.538;6.108;2024-03-23T02:45:55;100747.28;;;7.67;100.00
73651;BME280;61944;52.538;6.108;2024-03-23T02:48:20;100746.94;;;7.52;100.00
73651;BME280;61944;52.538;6.108;2024-03-23T02:50:46;100747.69;;;7.49;100.00
73651;BME280;61944;52.538;6.108;2024-03-23T02:53:11;100751.72;;;7.68;100.00
73651;BME280;61944;52.538;6.108;2024-03-23T02:55:36;100752.78;;;7.31;100.00
73651;BME280;61944;52.538;6.108;2024-03-23T02:58:02;100740.31;;;7.25;100.00
73651;BME280;61944;52.538;6.108;2024-03-23T03:00:28;100744.44;;;7.47;100.00
73651;BME280;61944;52.538;6.108;2024-03-23T03:02:54;100737.59;;;7.29;100.00
73651;BME280;61944;52.538;6.108;2024-03-23T03:05:19;100741.22;;;7.45;100.00
73651;BME280;61944;52.538;6.108;2024-03-23T03:07:44;100747.31;;;7.35;100.00
73651;BME280;61944;52.538;6.108;2024-03-23T03:10:09;100737.34;;;7.34;100.00
73651;BME280;61944;52.538;6.108;2024-03-23T03:12:36;100740.59;;;7.36;100.00
73651;BME280;61944;52.538;6.108;2024-03-23T03:15:03;100732.56;;;7.19;100.00
73651;BME280;61944;52.538;6.108;2024-03-23T03:17:30;100730.34;;;7.24;100.00
73651;BME280;61944;52.538;6.108;2024-03-23T03:19:55;100726.13;;;7.30;100.00
73651;BME280;61944;52.538;6.108;2024-03-23T03:22:22;100731.66;;;7.15;100.00
73651;BME280;61944;52.538;6.108;2024-03-23T03:24:47;100729.88;;;7.22;100.00
73651;BME280;61944;52.538;6.108;2024-03-23T03:27:13;100728.19;;;7.18;100.00
73651;BME280;61944;52.538;6.108;2024-03-23T03:29:38;100736.63;;;7.21;100.00
73651;BME280;61944;52.538;6.108;2024-03-23T03:32:03;100731.06;;;7.21;100.00
73651;BME280;61944;52.538;6.108;2024-03-23T03:34:29;100729.25;;;7.29;100.00
73651;BME280;61944;52.538;6.108;2024-03-23T03:36:55;100723.16;;;7.23;100.00
73651;BME280;61944;52.538;6.108;2024-03-23T03:39:21;100735.47;;;7.22;100.00
73651;BME280;61944;52.538;6.108;2024-03-23T03:41:48;100733.66;;;7.14;100.00
73651;BME280;61944;52.538;6.108;2024-03-23T03:44:13;100733.59;;;7.10;100.00
73651;BME280;61944;52.538;6.108;2024-03-23T03:46:38;100720.09;;;7.12;100.00
73651;BME280;61944;52.538;6.108;2024-03-23T03:49:03;100722.25;;;7.03;100.00
73651;BME280;61944;52.538;6.108;2024-03-23T03:51:29;100715.97;;;7.06;100.00
73651;BME280;61944;52.538;6.108;2024-03-23T03:53:54;100714.63;;;7.16;100.00
73651;BME280;61944;52.538;6.108;2024-03-23T03:56:19;100715.63;;;7.24;100.00
73651;BME280;61944;52.538;6.108;2024-03-23T03:58:45;100704.13;;;6.94;100.00
73651;BME280;61944;52.538;6.108;2024-03-23T04:01:10;100708.59;;;6.98;100.00
73651;BME280;61944;52.538;6.108;2024-03-23T04:03:35;100701.78;;;7.11;100.00
73651;BME280;61944;52.538;6.108;2024-03-23T04:06:01;100699.06;;;6.99;100.00
73651;BME280;61944;52.538;6.108;2024-03-23T04:08:26;100696.38;;;6.87;100.00
73651;BME280;61944;52.538;6.108;2024-03-23T04:10:51;100698.41;;;6.74;100.00
73651;BME280;61944;52.538;6.108;2024-03-23T04:13:17;100701.22;;;6.90;100.00
73651;BME280;61944;52.538;6.108;2024-03-23T04:15:42;100688.75;;;7.00;100.00
73651;BME280;61944;52.538;6.108;2024-03-23T04:18:08;100702.50;;;7.08;100.00
73651;BME280;61944;52.538;6.108;2024-03-23T04:20:33;100706.00;;;7.05;100.00
73651;BME280;61944;52.538;6.108;2024-03-23T04:22:59;100692.44;;;7.04;100.00
73651;BME280;61944;52.538;6.108;2024-03-23T04:25:24;100690.72;;;6.99;100.00
73651;BME280;61944;52.538;6.108;2024-03-23T04:27:50;100691.00;;;6.94;100.00
73651;BME280;61944;52.538;6.108;2024-03-23T04:30:15;100685.44;;;6.94;100.00
73651;BME280;61944;52.538;6.108;2024-03-23T04:32:41;100682.22;;;6.92;100.00
73651;BME280;61944;52.538;6.108;2024-03-23T04:35:07;100672.66;;;6.61;100.00
73651;BME280;61944;52.538;6.108;2024-03-23T04:37:35;100683.06;;;6.64;100.00
73651;BME280;61944;52.538;6.108;2024-03-23T04:40:01;100674.50;;;6.57;100.00
73651;BME280;61944;52.538;6.108;2024-03-23T04:42:28;100682.78;;;6.54;100.00
73651;BME280;61944;52.538;6.108;2024-03-23T04:44:54;100679.44;;;6.48;100.00
73651;BME280;61944;52.538;6.108;2024-03-23T04:47:19;100678.03;;;6.54;100.00
73651;BME280;61944;52.538;6.108;2024-03-23T04:49:44;100671.22;;;6.67;100.00
73651;BME280;61944;52.538;6.108;2024-03-23T04:52:10;100675.97;;;6.67;100.00
73651;BME280;61944;52.538;6.108;2024-03-23T04:54:35;100670.41;;;6.67;100.00
73651;BME280;61944;52.538;6.108;2024-03-23T04:57:00;100676.66;;;6.48;100.00
73651;BME280;61944;52.538;6.108;2024-03-23T04:59:26;100670.75;;;6.49;100.00
73651;BME280;61944;52.538;6.108;2024-03-23T05:01:51;100666.19;;;6.57;100.00
73651;BME280;61944;52.538;6.108;2024-03-23T05:04:17;100670.66;;;6.46;100.00
73651;BME280;61944;52.538;6.108;2024-03-23T05:06:42;100670.44;;;6.39;100.00
73651;BME280;61944;52.538;6.108;2024-03-23T05:09:08;100663.78;;;6.27;100.00
73651;BME280;61944;52.538;6.108;2024-03-23T05:11:37;100671.66;;;6.25;100.00
73651;BME280;61944;52.538;6.108;2024-03-23T05:14:05;100671.75;;;6.29;100.00
73651;BME280;61944;52.538;6.108;2024-03-23T05:16:31;100670.75;;;6.21;100.00
73651;BME280;61944;52.538;6.108;2024-03-23T05:18:57;100672.06;;;6.40;100.00
73651;BME280;61944;52.538;6.108;2024-03-23T05:21:22;100667.06;;;6.45;100.00
73651;BME280;61944;52.538;6.108;2024-03-23T05:23:47;100661.03;;;6.15;100.00
73651;BME280;61944;52.538;6.108;2024-03-23T05:26:14;100663.78;;;6.27;100.00
73651;BME280;61944;52.538;6.108;2024-03-23T05:28:39;100661.13;;;6.47;100.00
73651;BME280;61944;52.538;6.108;2024-03-23T05:31:05;100672.25;;;6.47;100.00
73651;BME280;61944;52.538;6.108;2024-03-23T05:33:30;100659.19;;;6.63;100.00
73651;BME280;61944;52.538;6.108;2024-03-23T05:35:57;100658.56;;;6.70;100.00
73651;BME280;61944;52.538;6.108;2024-03-23T05:38:23;100658.78;;;6.77;100.00
73651;BME280;61944;52.538;6.108;2024-03-23T05:40:55;100655.72;;;6.66;100.00
73651;BME280;61944;52.538;6.108;2024-03-23T05:43:21;100660.91;;;6.68;100.00
73651;BME280;61944;52.538;6.108;2024-03-23T05:45:53;100653.72;;;6.67;100.00
73651;BME280;61944;52.538;6.108;2024-03-23T05:48:19;100674.44;;;6.25;100.00
73651;BME280;61944;52.538;6.108;2024-03-23T05:50:44;100669.63;;;6.10;100.00
73651;BME280;61944;52.538;6.108;2024-03-23T05:53:09;100662.88;;;6.23;100.00
73651;BME280;61944;52.538;6.108;2024-03-23T05:55:34;100659.16;;;6.19;100.00
73651;BME280;61944;52.538;6.108;2024-03-23T05:58:00;100664.06;;;6.38;100.00
73651;BME280;61944;52.538;6.108;2024-03-23T06:00:25;100667.16;;;6.49;100.00
73651;BME280;61944;52.538;6.108;2024-03-23T06:02:51;100666.44;;;6.52;100.00
73651;BME280;61944;52.538;6.108;2024-03-23T06:05:17;100656.94;;;6.53;100.00
73651;BME280;61944;52.538;6.108;2024-03-23T06:07:42;100655.19;;;6.33;100.00
73651;BME280;61944;52.538;6.108;2024-03-23T06:10:08;100653.25;;;6.21;100.00
73651;BME280;61944;52.538;6.108;2024-03-23T06:12:33;100656.09;;;6.37;100.00
73651;BME280;61944;52.538;6.108;2024-03-23T06:14:58;100656.59;;;5.98;100.00
73651;BME280;61944;52.538;6.108;2024-03-23T06:17:24;100656.59;;;6.26;100.00
73651;BME280;61944;52.538;6.108;2024-03-23T06:19:49;100661.34;;;6.26;100.00
73651;BME280;61944;52.538;6.108;2024-03-23T06:22:15;100659.13;;;6.03;100.00
73651;BME280;61944;52.538;6.108;2024-03-23T06:24:40;100658.41;;;6.06;100.00
73651;BME280;61944;52.538;6.108;2024-03-23T06:27:06;100652.16;;;6.38;100.00
73651;BME280;61944;52.538;6.108;2024-03-23T06:29:31;100661.88;;;6.16;100.00
73651;BME280;61944;52.538;6.108;2024-03-23T06:31:57;100668.72;;;6.06;100.00
73651;BME280;61944;52.538;6.108;2024-03-23T06:34:23;100672.16;;;6.15;100.00
73651;BME280;61944;52.538;6.108;2024-03-23T06:36:48;100667.13;;;6.33;100.00
73651;BME280;61944;52.538;6.108;2024-03-23T06:39:15;100668.66;;;6.46;100.00
73651;BME280;61944;52.538;6.108;2024-03-23T06:41:46;100662.06;;;6.23;100.00
73651;BME280;61944;52.538;6.108;2024-03-23T06:44:16;100661.94;;;6.19;100.00
73651;BME280;61944;52.538;6.108;2024-03-23T06:46:41;100660.38;;;6.34;100.00
73651;BME280;61944;52.538;6.108;2024-03-23T06:49:07;100658.22;;;6.27;100.00
73651;BME280;61944;52.538;6.108;2024-03-23T06:51:32;100653.22;;;6.33;100.00
73651;BME280;61944;52.538;6.108;2024-03-23T06:53:57;100655.88;;;6.29;100.00
73651;BME280;61944;52.538;6.108;2024-03-23T06:56:22;100656.41;;;6.47;100.00
73651;BME280;61944;52.538;6.108;2024-03-23T06:58:48;100659.63;;;6.49;100.00
73651;BME280;61944;52.538;6.108;2024-03-23T07:01:13;100645.81;;;6.53;100.00
73651;BME280;61944;52.538;6.108;2024-03-23T07:03:38;100666.00;;;6.50;100.00
73651;BME280;61944;52.538;6.108;2024-03-23T07:06:04;100667.66;;;6.39;100.00
73651;BME280;61944;52.538;6.108;2024-03-23T07:08:29;100657.31;;;6.23;100.00
73651;BME280;61944;52.538;6.108;2024-03-23T07:10:54;100654.09;;;6.09;100.00
73651;BME280;61944;52.538;6.108;2024-03-23T07:13:20;100649.81;;;6.40;100.00
73651;BME280;61944;52.538;6.108;2024-03-23T07:15:51;100661.16;;;6.19;100.00
73651;BME280;61944;52.538;6.108;2024-03-23T07:18:17;100657.53;;;6.30;100.00
73651;BME280;61944;52.538;6.108;2024-03-23T07:20:42;100665.78;;;6.43;100.00
73651;BME280;61944;52.538;6.108;2024-03-23T07:23:07;100667.97;;;6.21;100.00
73651;BME280;61944;52.538;6.108;2024-03-23T07:25:32;100668.31;;;6.48;100.00
73651;BME280;61944;52.538;6.108;2024-03-23T07:27:58;100677.28;;;6.57;100.00
73651;BME280;61944;52.538;6.108;2024-03-23T07:30:23;100688.25;;;6.50;100.00
73651;BME280;61944;52.538;6.108;2024-03-23T07:32:48;100675.88;;;6.63;100.00
73651;BME280;61944;52.538;6.108;2024-03-23T07:35:14;100671.44;;;6.75;100.00
73651;BME280;61944;52.538;6.108;2024-03-23T07:37:40;100659.69;;;6.81;100.00
73651;BME280;61944;52.538;6.108;2024-03-23T07:40:09;100658.84;;;6.65;100.00
73651;BME280;61944;52.538;6.108;2024-03-23T07:42:34;100659.50;;;6.90;100.00
73651;BME280;61944;52.538;6.108;2024-03-23T07:45:00;100655.34;;;7.00;100.00
73651;BME280;61944;52.538;6.108;2024-03-23T07:47:25;100657.41;;;6.87;100.00
73651;BME280;61944;52.538;6.108;2024-03-23T07:49:51;100672.75;;;6.81;100.00
73651;BME280;61944;52.538;6.108;2024-03-23T07:52:16;100663.53;;;6.33;100.00
73651;BME280;61944;52.538;6.108;2024-03-23T07:54:42;100663.16;;;6.06;100.00
73651;BME280;61944;52.538;6.108;2024-03-23T07:57:07;100675.91;;;6.35;100.00
73651;BME280;61944;52.538;6.108;2024-03-23T07:59:32;100688.34;;;6.54;100.00
73651;BME280;61944;52.538;6.108;2024-03-23T08:01:59;100689.31;;;6.45;100.00
73651;BME280;61944;52.538;6.108;2024-03-23T08:04:25;100677.81;;;6.47;100.00
73651;BME280;61944;52.538;6.108;2024-03-23T08:06:50;100677.28;;;6.57;100.00
73651;BME280;61944;52.538;6.108;2024-03-23T08:09:15;100671.56;;;6.50;100.00
73651;BME280;61944;52.538;6.108;2024-03-23T08:11:41;100670.66;;;6.46;100.00
73651;BME280;61944;52.538;6.108;2024-03-23T08:14:09;100672.28;;;6.63;100.00
73651;BME280;61944;52.538;6.108;2024-03-23T08:16:35;100665.47;;;6.60;100.00
73651;BME280;61944;52.538;6.108;2024-03-23T08:19:00;100668.25;;;6.60;100.00
73651;BME280;61944;52.538;6.108;2024-03-23T08:21:25;100665.03;;;6.58;100.00
73651;BME280;61944;52.538;6.108;2024-03-23T08:23:51;100664.56;;;6.56;100.00
73651;BME280;61944;52.538;6.108;2024-03-23T08:26:17;100667.75;;;6.70;100.00
73651;BME280;61944;52.538;6.108;2024-03-23T08:28:45;100676.81;;;6.39;100.00
73651;BME280;61944;52.538;6.108;2024-03-23T08:31:12;100676.44;;;6.41;100.00
73651;BME280;61944;52.538;6.108;2024-03-23T08:33:37;100665.03;;;6.58;100.00
73651;BME280;61944;52.538;6.108;2024-03-23T08:36:07;100671.31;;;6.71;100.00
73651;BME280;61944;52.538;6.108;2024-03-23T08:38:34;100673.56;;;6.65;100.00
73651;BME280;61944;52.538;6.108;2024-03-23T08:41:07;100671.50;;;6.62;100.00
73651;BME280;61944;52.538;6.108;2024-03-23T08:43:35;100670.22;;;6.60;100.00
73651;BME280;61944;52.538;6.108;2024-03-23T08:46:11;100661.09;;;6.75;100.00
73651;BME280;61944;52.538;6.108;2024-03-23T08:48:39;100655.53;;;6.75;100.00
73651;BME280;61944;52.538;6.108;2024-03-23T08:51:07;100659.56;;;6.78;100.00
73651;BME280;61944;52.538;6.108;2024-03-23T08:53:33;100664.97;;;6.70;100.00
73651;BME280;61944;52.538;6.108;2024-03-23T08:55:59;100657.06;;;6.72;100.00
73651;BME280;61944;52.538;6.108;2024-03-23T08:58:27;100651.50;;;6.72;100.00
73651;BME280;61944;52.538;6.108;2024-03-23T09:00:53;100645.94;;;6.72;100.00
73651;BME280;61944;52.538;6.108;2024-03-23T09:03:25;100648.78;;;6.60;100.00
73651;BME280;61944;52.538;6.108;2024-03-23T09:05:51;100651.84;;;6.87;100.00
73651;BME280;61944;52.538;6.108;2024-03-23T09:08:17;100645.94;;;7.04;100.00
73651;BME280;61944;52.538;6.108;2024-03-23T09:10:43;100651.06;;;6.70;100.00
73651;BME280;61944;52.538;6.108;2024-03-23T09:13:08;100645.06;;;7.00;100.00
73651;BME280;61944;52.538;6.108;2024-03-23T09:15:36;100649.44;;;7.17;100.00
73651;BME280;61944;52.538;6.108;2024-03-23T09:18:02;100643.69;;;7.10;100.00
73651;BME280;61944;52.538;6.108;2024-03-23T09:20:28;100634.25;;;7.15;100.00
73651;BME280;61944;52.538;6.108;2024-03-23T09:22:53;100632.81;;;7.21;100.00
73651;BME280;61944;52.538;6.108;2024-03-23T09:25:18;100636.41;;;7.21;100.00
73651;BME280;61944;52.538;6.108;2024-03-23T09:27:47;100638.47;;;7.24;100.00
73651;BME280;61944;52.538;6.108;2024-03-23T09:30:13;100639.56;;;7.20;100.00
73651;BME280;61944;52.538;6.108;2024-03-23T09:32:39;100642.34;;;7.20;100.00
73651;BME280;61944;52.538;6.108;2024-03-23T09:35:04;100649.50;;;7.21;100.00
73651;BME280;61944;52.538;6.108;2024-03-23T09:37:30;100657.06;;;7.36;100.00
73651;BME280;61944;52.538;6.108;2024-03-23T09:39:55;100647.00;;;7.16;100.00
73651;BME280;61944;52.538;6.108;2024-03-23T09:42:20;100634.25;;;7.15;100.00
73651;BME280;61944;52.538;6.108;2024-03-23T09:44:46;100634.88;;;7.08;100.00
73651;BME280;61944;52.538;6.108;2024-03-23T09:47:14;100631.81;;;7.29;100.00
73651;BME280;61944;52.538;6.108;2024-03-23T09:49:39;100634.16;;;7.27;100.00
73651;BME280;61944;52.538;6.108;2024-03-23T09:52:05;100624.66;;;7.28;100.00
73651;BME280;61944;52.538;6.108;2024-03-23T09:54:31;100618.97;;;7.40;100.00
73651;BME280;61944;52.538;6.108;2024-03-23T09:56:58;100621.91;;;7.47;100.00
73651;BME280;61944;52.538;6.108;2024-03-23T09:59:23;100621.00;;;7.43;100.00
73651;BME280;61944;52.538;6.108;2024-03-23T10:01:52;100615.75;;;7.38;100.00
73651;BME280;61944;52.538;6.108;2024-03-23T10:04:37;100627.09;;;7.13;100.00
73651;BME280;61944;52.538;6.108;2024-03-23T10:07:13;100621.16;;;7.15;100.00
73651;BME280;61944;52.538;6.108;2024-03-23T10:09:38;100628.44;;;7.20;100.00
73651;BME280;61944;52.538;6.108;2024-03-23T10:12:11;100633.44;;;7.14;100.00
73651;BME280;61944;52.538;6.108;2024-03-23T10:14:39;100634.97;;;7.11;100.00
73651;BME280;61944;52.538;6.108;2024-03-23T10:17:21;100623.22;;;7.18;100.00
73651;BME280;61944;52.538;6.108;2024-03-23T10:19:50;100617.38;;;7.07;100.00
73651;BME280;61944;52.538;6.108;2024-03-23T10:22:21;100622.66;;;7.28;100.00
73651;BME280;61944;52.538;6.108;2024-03-23T10:24:47;100617.53;;;7.46;100.00
73651;BME280;61944;52.538;6.108;2024-03-23T10:27:20;100620.00;;;7.51;100.00
73651;BME280;61944;52.538;6.108;2024-03-23T10:29:46;100614.63;;;7.78;100.00
73651;BME280;61944;52.538;6.108;2024-03-23T10:32:13;100625.13;;;7.85;100.00
73651;BME280;61944;52.538;6.108;2024-03-23T10:34:39;100616.59;;;7.78;100.00
73651;BME280;61944;52.538;6.108;2024-03-23T10:37:05;100614.19;;;7.76;100.00
73651;BME280;61944;52.538;6.108;2024-03-23T10:39:41;100621.22;;;7.70;100.00
73651;BME280;61944;52.538;6.108;2024-03-23T10:42:08;100618.69;;;7.65;100.00
73651;BME280;61944;52.538;6.108;2024-03-23T10:44:34;100620.44;;;7.53;100.00
73651;BME280;61944;52.538;6.108;2024-03-23T10:47:03;100610.03;;;7.50;100.00
73651;BME280;61944;52.538;6.108;2024-03-23T10:49:31;100615.88;;;7.45;100.00
73651;BME280;61944;52.538;6.108;2024-03-23T10:51:58;100621.09;;;7.47;100.00
73651;BME280;61944;52.538;6.108;2024-03-23T10:54:24;100613.53;;;7.47;100.00
73651;BME280;61944;52.538;6.108;2024-03-23T10:57:15;100611.44;;;7.60;100.00
73651;BME280;61944;52.538;6.108;2024-03-23T10:59:39;100600.97;;;7.92;100.00
73651;BME280;61944;52.538;6.108;2024-03-23T11:02:05;100611.38;;;8.15;100.00
73651;BME280;61944;52.538;6.108;2024-03-23T11:04:34;100615.81;;;8.16;100.00
73651;BME280;61944;52.538;6.108;2024-03-23T11:07:01;100610.59;;;7.95;100.00
73651;BME280;61944;52.538;6.108;2024-03-23T11:09:39;100616.22;;;7.99;100.00
73651;BME280;61944;52.538;6.108;2024-03-23T11:14:47;100618.56;;;7.77;100.00
73651;BME280;61944;52.538;6.108;2024-03-23T11:17:23;100616.63;;;7.97;100.00
73651;BME280;61944;52.538;6.108;2024-03-23T11:20:03;100616.75;;;8.24;100.00
73651;BME280;61944;52.538;6.108;2024-03-23T11:22:46;100611.97;;;8.44;100.00
73651;BME280;61944;52.538;6.108;2024-03-23T11:25:22;100616.22;;;8.38;100.00
73651;BME280;61944;52.538;6.108;2024-03-23T11:27:58;100603.31;;;8.29;100.00
73651;BME280;61944;52.538;6.108;2024-03-23T11:30:25;100605.06;;;8.38;100.00
73651;BME280;61944;52.538;6.108;2024-03-23T11:32:53;100602.72;;;8.40;100.00
73651;BME280;61944;52.538;6.108;2024-03-23T11:35:29;100607.09;;;8.60;100.00
73651;BME280;61944;52.538;6.108;2024-03-23T11:38:13;100631.63;;;8.31;100.00
73651;BME280;61944;52.538;6.108;2024-03-23T11:40:43;100611.75;;;8.13;100.00
73651;BME280;61944;52.538;6.108;2024-03-23T11:43:10;100609.56;;;8.23;100.00
73651;BME280;61944;52.538;6.108;2024-03-23T11:45:46;100611.13;;;8.20;100.00
73651;BME280;61944;52.538;6.108;2024-03-23T11:48:16;100616.00;;;8.27;100.00
73651;BME280;61944;52.538;6.108;2024-03-23T11:50:49;100623.25;;;8.51;100.00
73651;BME280;61944;52.538;6.108;2024-03-23T11:53:22;100619.25;;;8.71;100.00
73651;BME280;61944;52.538;6.108;2024-03-23T11:55:59;100621.97;;;8.91;100.00
73651;BME280;61944;52.538;6.108;2024-03-23T11:58:26;100636.59;;;8.61;100.00
73651;BME280;61944;52.538;6.108;2024-03-23T12:00:56;100615.78;;;9.01;100.00
73651;BME280;61944;52.538;6.108;2024-03-23T12:03:23;100616.53;;;9.51;100.00
73651;BME280;61944;52.538;6.108;2024-03-23T12:05:52;100603.97;;;9.38;100.00
73651;BME280;61944;52.538;6.108;2024-03-23T12:08:28;100608.81;;;8.91;100.00
73651;BME280;61944;52.538;6.108;2024-03-23T12:11:11;100584.84;;;9.13;100.00
73651;BME280;61944;52.538;6.108;2024-03-23T12:13:38;100606.19;;;9.02;100.00
73651;BME280;61944;52.538;6.108;2024-03-23T12:16:18;100608.53;;;8.73;100.00
73651;BME280;61944;52.538;6.108;2024-03-23T12:18:47;100602.31;;;8.61;100.00
73651;BME280;61944;52.538;6.108;2024-03-23T12:21:13;100600.31;;;8.19;100.00
73651;BME280;61944;52.538;6.108;2024-03-23T12:23:39;100599.34;;;8.30;100.00
73651;BME280;61944;52.538;6.108;2024-03-23T12:26:05;100593.09;;;8.37;100.00
73651;BME280;61944;52.538;6.108;2024-03-23T12:28:31;100597.97;;;8.63;100.00
73651;BME280;61944;52.538;6.108;2024-03-23T12:30:57;100591.59;;;8.86;100.00
73651;BME280;61944;52.538;6.108;2024-03-23T12:33:22;100582.91;;;8.91;100.00
73651;BME280;61944;52.538;6.108;2024-03-23T12:35:51;100586.50;;;8.68;100.00
73651;BME280;61944;52.538;6.108;2024-03-23T12:38:17;100577.59;;;8.59;100.00
73651;BME280;61944;52.538;6.108;2024-03-23T12:40:46;100590.53;;;8.48;100.00
73651;BME280;61944;52.538;6.108;2024-03-23T12:43:12;100597.88;;;8.56;100.00
73651;BME280;61944;52.538;6.108;2024-03-23T12:45:38;100600.09;;;8.27;100.00
73651;BME280;61944;52.538;6.108;2024-03-23T12:48:03;100600.66;;;8.37;100.00
73651;BME280;61944;52.538;6.108;2024-03-23T12:50:29;100592.03;;;8.22;100.00
73651;BME280;61944;52.538;6.108;2024-03-23T12:52:54;100594.53;;;8.08;100.00
73651;BME280;61944;52.538;6.108;2024-03-23T12:55:20;100606.25;;;8.17;100.00
73651;BME280;61944;52.538;6.108;2024-03-23T12:57:46;100588.53;;;8.06;100.00
73651;BME280;61944;52.538;6.108;2024-03-23T13:00:12;100576.22;;;8.30;100.00
73651;BME280;61944;52.538;6.108;2024-03-23T13:02:38;100586.56;;;8.49;100.00
73651;BME280;61944;52.538;6.108;2024-03-23T13:05:04;100581.59;;;8.62;100.00
73651;BME280;61944;52.538;6.108;2024-03-23T13:07:30;100587.53;;;8.83;100.00
73651;BME280;61944;52.538;6.108;2024-03-23T13:09:56;100582.41;;;8.85;100.00
73651;BME280;61944;52.538;6.108;2024-03-23T13:12:22;100575.06;;;9.00;100.00
73651;BME280;61944;52.538;6.108;2024-03-23T13:14:48;100567.88;;;8.99;100.00
73651;BME280;61944;52.538;6.108;2024-03-23T13:17:13;100566.63;;;9.23;100.00
73651;BME280;61944;52.538;6.108;2024-03-23T13:19:38;100575.28;;;9.14;100.00
73651;BME280;61944;52.538;6.108;2024-03-23T13:22:04;100581.06;;;8.75;100.00
73651;BME280;61944;52.538;6.108;2024-03-23T13:24:30;100596.84;;;8.45;100.00
73651;BME280;61944;52.538;6.108;2024-03-23T13:26:56;100601.34;;;7.91;100.00
73651;BME280;61944;52.538;6.108;2024-03-23T13:29:22;100612.34;;;7.64;100.00
73651;BME280;61944;52.538;6.108;2024-03-23T13:31:49;100599.75;;;7.35;100.00
73651;BME280;61944;52.538;6.108;2024-03-23T13:34:15;100602.75;;;7.46;100.00
73651;BME280;61944;52.538;6.108;2024-03-23T13:36:42;100602.41;;;7.47;100.00
73651;BME280;61944;52.538;6.108;2024-03-23T13:39:08;100603.38;;;7.55;100.00
73651;BME280;61944;52.538;6.108;2024-03-23T13:41:44;100596.47;;;7.49;100.00
73651;BME280;61944;52.538;6.108;2024-03-23T13:44:11;100593.50;;;7.77;100.00